Time;durP1;ratioP1;P1;durP2;ratioP2;P2;SDS_P1;SDS_P2;PMS_P1;PMS_P2;Temp;Humidity;BMP_temperature;BMP_pressure;BME280_temperature;BME280_humidity;BME280_pressure;Samples;Min_cycle;Max_cycle;Signal;HPM_P1;HPM_P2
2023/08/13 00:04:29;;;;;;;10.60;7.90;;;;;;;14.47;64.92;100728.91;224629;1231;58629;-73
2023/08/13 00:09:21;;;;;;;14.60;7.80;;;;;;;14.42;65.10;100730.31;224694;1230;58186;-74
2023/08/13 00:14:12;;;;;;;8.80;7.80;;;;;;;14.36;65.32;100729.78;224687;1231;73480;-74
2023/08/13 00:19:04;;;;;;;10.60;7.60;;;;;;;14.32;65.48;100733.25;224607;1230;58123;-74
2023/08/13 00:23:56;;;;;;;12.60;8.00;;;;;;;14.35;65.54;100728.20;224730;1231;58428;-74
2023/08/13 00:28:48;;;;;;;8.10;7.10;;;;;;;14.31;65.59;100726.80;224620;1231;72336;-73
2023/08/13 00:33:39;;;;;;;8.50;6.70;;;;;;;14.26;65.85;100723.83;224661;1231;58229;-74
2023/08/13 00:38:31;;;;;;;9.20;7.40;;;;;;;14.19;65.94;100719.98;224525;1231;58592;-74
2023/08/13 00:43:22;;;;;;;13.90;8.30;;;;;;;14.13;65.86;100718.74;224679;1230;60085;-74
2023/08/13 00:48:14;;;;;;;9.40;7.70;;;;;;;14.04;65.96;100722.73;224638;1231;58543;-73
2023/08/13 00:53:07;;;;;;;12.20;7.80;;;;;;;14.02;66.20;100723.24;224704;1231;58281;-74
2023/08/13 00:57:59;;;;;;;11.40;8.10;;;;;;;13.99;66.20;100723.23;224467;1230;65437;-74
2023/08/13 01:02:51;;;;;;;10.30;8.30;;;;;;;13.93;66.42;100724.61;224549;1231;73377;-74
2023/08/13 01:07:59;;;;;;;10.00;8.10;;;;;;;13.91;66.47;100723.91;224609;1231;58491;-74
2023/08/13 01:13:04;;;;;;;;;;;;;;;13.88;66.70;100717.45;224622;1231;72313;-74
2023/08/13 01:17:56;;;;;;;10.50;7.70;;;;;;;13.81;66.80;100716.73;224588;1230;60868;-74
2023/08/13 01:22:49;;;;;;;10.00;8.30;;;;;;;13.77;66.90;100719.84;224402;1231;58067;-74
2023/08/13 01:28:08;;;;;;;11.10;8.80;;;;;;;13.73;67.05;100723.32;224583;1231;58125;-74
2023/08/13 01:33:04;;;;;;;9.70;7.10;;;;;;;13.70;67.16;100717.39;224598;1231;72437;-73
2023/08/13 01:37:58;;;;;;;9.10;8.20;;;;;;;13.65;67.33;100712.14;224450;1231;73581;-74
2023/08/13 01:42:50;;;;;;;10.40;8.00;;;;;;;13.61;67.41;100714.20;224561;1231;59983;-74
2023/08/13 01:47:42;;;;;;;10.90;8.60;;;;;;;13.57;67.57;100709.84;224548;1231;58094;-74
2023/08/13 01:52:33;;;;;;;10.00;7.70;;;;;;;13.57;67.71;100713.31;224599;1231;58438;-73
2023/08/13 01:57:25;;;;;;;11.30;8.20;;;;;;;13.57;67.88;100704.09;224464;1230;66060;-74
2023/08/13 02:02:16;;;;;;;9.70;7.60;;;;;;;13.61;68.11;100708.47;224459;1231;58161;-74
2023/08/13 02:07:08;;;;;;;11.00;8.10;;;;;;;13.68;68.28;100706.92;224594;1231;58371;-73
2023/08/13 02:11:59;;;;;;;8.20;7.30;;;;;;;13.74;68.30;100701.04;224590;1231;58242;-74
2023/08/13 02:16:51;;;;;;;9.30;7.90;;;;;;;13.79;68.47;100693.38;224601;1231;58167;-74
2023/08/13 02:21:43;;;;;;;8.60;7.70;;;;;;;13.85;68.43;100695.31;224534;1231;58110;-74
2023/08/13 02:26:35;;;;;;;8.70;7.50;;;;;;;13.88;68.42;100695.84;224559;1231;72563;-74
2023/08/13 02:31:26;;;;;;;11.30;7.90;;;;;;;13.91;68.48;100694.10;224509;1231;58268;-74
2023/08/13 02:36:18;;;;;;;10.80;7.70;;;;;;;13.95;68.43;100695.34;224655;1230;58209;-73
2023/08/13 02:41:10;;;;;;;12.80;8.00;;;;;;;13.98;68.50;100698.49;224442;1231;72307;-73
2023/08/13 02:46:02;;;;;;;10.10;7.20;;;;;;;14.01;68.61;100697.09;224600;1231;58132;-74
2023/08/13 02:50:53;;;;;;;12.40;7.80;;;;;;;14.02;68.52;100689.96;224472;1230;58183;-74
2023/08/13 02:55:45;;;;;;;9.80;7.30;;;;;;;14.04;68.65;100690.84;224564;1231;58751;-74
2023/08/13 03:00:36;;;;;;;9.30;7.40;;;;;;;14.05;68.71;100687.70;224562;1230;58492;-74
2023/08/13 03:05:30;;;;;;;8.80;7.00;;;;;;;14.05;68.69;100676.21;224476;1231;58154;-74
2023/08/13 03:10:21;;;;;;;8.10;7.30;;;;;;;14.06;68.72;100681.27;224572;1231;65502;-74
2023/08/13 03:15:13;;;;;;;8.30;7.30;;;;;;;14.04;68.83;100679.52;224547;1230;58142;-73
2023/08/13 03:20:05;;;;;;;9.90;7.10;;;;;;;14.04;68.93;100676.72;224588;1231;58217;-74
2023/08/13 03:24:58;;;;;;;8.80;6.90;;;;;;;14.06;68.95;100666.09;224512;1230;58593;-74
2023/08/13 03:29:50;;;;;;;8.40;7.20;;;;;;;14.06;69.02;100667.15;224431;1231;58607;-74
2023/08/13 03:34:41;;;;;;;7.80;6.50;;;;;;;14.03;69.08;100672.02;224558;1231;58246;-74
2023/08/13 03:39:33;;;;;;;11.60;7.40;;;;;;;14.01;69.25;100667.48;224465;1231;74712;-74
2023/08/13 03:44:25;;;;;;;8.50;7.40;;;;;;;13.99;69.29;100669.04;224483;1231;58458;-74
2023/08/13 03:49:16;;;;;;;10.50;6.50;;;;;;;13.97;69.43;100667.64;224539;1231;58526;-74
2023/08/13 03:54:08;;;;;;;10.40;7.40;;;;;;;13.97;69.57;100661.02;224465;1231;72374;-74
2023/08/13 03:59:01;;;;;;;7.20;6.50;;;;;;;13.97;69.71;100658.77;224465;1231;59843;-74
2023/08/13 04:03:53;;;;;;;7.50;6.80;;;;;;;13.97;69.67;100657.35;224446;1231;58423;-74
2023/08/13 04:08:45;;;;;;;8.10;6.50;;;;;;;13.98;69.77;100649.17;224290;1231;58406;-73
2023/08/13 04:13:36;;;;;;;8.70;6.40;;;;;;;14.00;69.83;100641.84;224596;1230;66715;-74
2023/08/13 04:18:27;;;;;;;8.90;6.80;;;;;;;14.04;70.09;100643.43;224406;1231;58149;-74
2023/08/13 04:23:19;;;;;;;7.90;6.60;;;;;;;14.05;70.03;100647.95;224647;1230;58142;-74
2023/08/13 04:28:12;;;;;;;8.00;6.90;;;;;;;14.07;70.07;100637.33;224435;1231;59465;-73
2023/08/13 04:33:06;;;;;;;8.10;7.30;;;;;;;14.10;70.28;100638.91;224473;1231;73744;-73
2023/08/13 04:37:58;;;;;;;8.50;6.90;;;;;;;14.14;70.35;100646.41;224428;1231;58237;-73
2023/08/13 04:42:52;;;;;;;8.30;6.80;;;;;;;14.21;70.52;100657.74;224445;1231;58721;-74
2023/08/13 04:47:44;;;;;;;8.10;6.90;;;;;;;14.28;70.57;100659.49;224534;1231;58180;-73
2023/08/13 04:52:37;;;;;;;8.40;6.50;;;;;;;14.40;70.58;100647.82;224551;1230;58488;-74
2023/08/13 04:57:28;;;;;;;7.50;6.70;;;;;;;14.59;70.48;100645.04;224640;1231;64867;-73
2023/08/13 05:02:21;;;;;;;11.90;8.60;;;;;;;14.81;70.50;100650.96;224529;1231;59241;-74
2023/08/13 05:07:12;;;;;;;7.30;6.50;;;;;;;15.07;70.49;100647.60;224460;1231;58355;-74
2023/08/13 05:12:04;;;;;;;9.60;7.60;;;;;;;15.37;70.61;100649.77;224485;1234;58123;-73
2023/08/13 05:16:56;;;;;;;8.80;7.50;;;;;;;15.81;70.34;100645.73;224512;1230;73779;-74
2023/08/13 05:21:48;;;;;;;11.60;6.90;;;;;;;16.27;70.05;100629.17;224260;1231;58128;-74
2023/08/13 05:26:39;;;;;;;7.80;7.10;;;;;;;16.65;69.62;100631.64;224481;1231;58501;-73
2023/08/13 05:31:31;;;;;;;8.40;7.60;;;;;;;17.01;69.25;100631.50;224666;1231;71276;-74
2023/08/13 05:36:22;;;;;;;8.00;7.20;;;;;;;17.29;69.09;100629.59;224476;1231;58500;-73
2023/08/13 05:41:14;;;;;;;8.30;7.50;;;;;;;17.48;68.80;100627.79;224335;1231;58192;-74
2023/08/13 05:46:05;;;;;;;11.20;7.50;;;;;;;17.53;68.41;100620.37;224391;1231;58319;-74
2023/08/13 05:50:59;;;;;;;9.70;7.10;;;;;;;17.53;68.36;100614.93;224474;1231;65844;-74
2023/08/13 05:55:51;;;;;;;7.80;7.00;;;;;;;17.60;68.42;100620.45;224545;1231;58080;-73
2023/08/13 06:00:43;;;;;;;7.80;7.00;;;;;;;17.71;68.27;100625.73;224669;1231;58130;-74
2023/08/13 06:05:35;;;;;;;7.90;7.00;;;;;;;17.85;68.07;100633.95;224726;1234;58068;-74
2023/08/13 06:10:26;;;;;;;10.90;7.40;;;;;;;18.06;67.89;100633.50;224696;1232;74487;-74
2023/08/13 06:15:17;;;;;;;8.70;7.00;;;;;;;18.31;67.55;100628.54;224643;1231;58633;-73
2023/08/13 06:20:10;;;;;;;7.40;6.70;;;;;;;18.67;67.16;100626.35;224539;1232;58147;-73
2023/08/13 06:25:02;;;;;;;8.10;6.70;;;;;;;19.56;66.02;100616.52;224689;1232;71312;-74
2023/08/13 06:29:53;;;;;;;7.80;6.70;;;;;;;20.83;64.11;100617.52;224752;1231;58202;-74
2023/08/13 06:35:00;;;;;;;6.40;5.80;;;;;;;21.57;62.77;100622.33;224705;1231;65852;-74
2023/08/13 06:39:52;;;;;;;10.20;6.10;;;;;;;22.18;61.60;100609.88;224569;1231;58139;-74
2023/08/13 06:44:43;;;;;;;6.20;5.40;;;;;;;22.41;60.94;100606.50;224772;1230;58194;-74
2023/08/13 06:49:35;;;;;;;7.20;5.90;;;;;;;22.59;60.12;100608.70;224548;1232;59283;-74
2023/08/13 06:54:27;;;;;;;7.00;5.80;;;;;;;22.62;59.71;100611.59;224729;1232;58182;-74
2023/08/13 06:59:18;;;;;;;7.90;5.90;;;;;;;23.00;59.23;100624.73;224711;1230;58246;-74
2023/08/13 07:04:09;;;;;;;7.40;6.60;;;;;;;24.42;57.41;100623.15;224769;1232;73468;-74
2023/08/13 07:09:03;;;;;;;6.90;5.60;;;;;;;24.76;56.85;100622.63;224720;1230;58106;-74
2023/08/13 07:13:56;;;;;;;6.40;5.30;;;;;;;25.82;54.93;100625.81;224811;1231;58123;-74
2023/08/13 07:18:48;;;;;;;5.90;5.30;;;;;;;26.46;53.82;100629.27;224750;1232;58247;-74
2023/08/13 07:23:39;;;;;;;6.20;4.80;;;;;;;26.09;53.43;100634.13;224548;1231;58275;-74
2023/08/13 07:28:34;;;;;;;9.70;5.80;;;;;;;25.55;53.83;100635.43;224810;1230;58258;-74
2023/08/13 07:33:25;;;;;;;6.90;5.20;;;;;;;25.63;53.68;100629.02;224787;1232;58532;-74
2023/08/13 07:38:17;;;;;;;6.30;5.70;;;;;;;26.42;52.50;100619.48;224801;1234;58120;-74
2023/08/13 07:43:09;;;;;;;6.70;5.50;;;;;;;27.40;51.36;100613.67;224884;1232;58268;-74
2023/08/13 07:48:00;;;;;;;5.40;4.80;;;;;;;27.77;50.73;100613.98;224810;1232;73615;-74
2023/08/13 07:52:51;;;;;;;9.80;5.60;;;;;;;27.08;51.54;100619.85;224802;1231;58082;-74
2023/08/13 07:57:43;;;;;;;6.20;5.60;;;;;;;27.04;51.00;100622.02;224857;1231;58083;-74
2023/08/13 08:02:35;;;;;;;6.70;4.80;;;;;;;27.08;51.22;100622.89;224768;1232;70301;-74
2023/08/13 08:07:27;;;;;;;5.30;4.80;;;;;;;27.41;50.39;100616.11;224831;1232;58230;-74
2023/08/13 08:12:19;;;;;;;7.40;5.20;;;;;;;28.10;49.62;100608.93;224573;1232;58099;-74
2023/08/13 08:17:10;;;;;;;5.40;4.90;;;;;;;27.75;50.37;100610.14;224584;1232;58220;-74
2023/08/13 08:22:02;;;;;;;5.20;4.70;;;;;;;27.53;50.18;100616.00;224810;1231;66726;-75
2023/08/13 08:26:53;;;;;;;6.50;4.30;;;;;;;27.73;49.39;100616.37;224789;1232;58236;-74
2023/08/13 08:31:45;;;;;;;6.50;4.40;;;;;;;27.57;50.07;100625.60;224844;1232;58503;-75
2023/08/13 08:36:36;;;;;;;6.00;5.00;;;;;;;27.11;50.29;100620.94;224839;1230;58119;-74
2023/08/13 08:41:31;;;;;;;5.80;4.60;;;;;;;26.81;50.81;100617.73;224816;1231;58292;-74
2023/08/13 08:46:23;;;;;;;5.80;5.20;;;;;;;26.46;51.45;100615.06;224755;1230;73579;-74
2023/08/13 08:51:15;;;;;;;7.40;5.80;;;;;;;26.23;51.64;100617.45;224827;1232;58138;-74
2023/08/13 08:56:06;;;;;;;5.60;5.00;;;;;;;26.11;51.76;100609.88;224832;1230;58250;-74
2023/08/13 09:01:00;;;;;;;6.00;5.40;;;;;;;26.18;51.84;100607.02;224882;1231;58309;-74
2023/08/13 09:05:51;;;;;;;5.40;4.70;;;;;;;26.50;51.71;100592.98;224799;1232;66557;-75
2023/08/13 09:10:44;;;;;;;7.10;5.10;;;;;;;26.61;52.08;100590.83;224554;1232;58231;-74
2023/08/13 09:15:43;;;;;;;5.20;4.70;;;;;;;26.63;51.65;100594.64;224939;1230;58173;-74
2023/08/13 09:20:42;;;;;;;7.30;4.50;;;;;;;26.66;51.32;100592.91;224787;1231;58169;-74
2023/08/13 09:25:34;;;;;;;5.00;4.50;;;;;;;26.89;51.39;100601.11;224578;1230;72542;-74
2023/08/13 09:30:28;;;;;;;7.70;4.60;;;;;;;27.03;50.97;100598.77;224554;1231;58164;-74
2023/08/13 09:35:20;;;;;;;5.10;4.30;;;;;;;27.48;50.34;100593.20;224850;1232;58160;-75
2023/08/13 09:40:12;;;;;;;4.60;4.20;;;;;;;27.84;50.05;100590.96;224813;1231;58332;-74
2023/08/13 09:45:05;;;;;;;5.90;4.30;;;;;;;27.77;50.13;100592.25;224882;1232;58133;-74
2023/08/13 09:49:59;;;;;;;4.70;4.30;;;;;;;27.71;50.15;100588.13;224854;1231;58579;-74
2023/08/13 09:54:56;;;;;;;5.10;4.00;;;;;;;27.79;50.27;100586.45;224806;1230;58122;-75
2023/08/13 09:59:51;;;;;;;6.60;4.30;;;;;;;27.94;50.09;100578.65;224843;1232;59787;-74
2023/08/13 10:04:42;;;;;;;4.90;3.90;;;;;;;28.59;49.51;100582.27;224848;1230;65768;-74
2023/08/13 10:09:35;;;;;;;4.50;4.10;;;;;;;30.76;46.81;100579.54;224866;1230;58058;-75
2023/08/13 10:14:27;;;;;;;4.80;3.80;;;;;;;34.41;42.48;100580.02;224838;1230;58269;-75
2023/08/13 10:19:19;;;;;;;4.70;3.60;;;;;;;36.82;39.29;100583.80;224886;1230;58516;-75
2023/08/13 10:24:12;;;;;;;4.60;4.20;;;;;;;38.51;37.21;100578.30;224864;1232;73532;-75
2023/08/13 10:29:24;;;;;;;5.50;4.00;;;;;;;39.78;35.17;100576.42;224836;1231;58298;-75
2023/08/13 10:34:17;;;;;;;6.30;4.00;;;;;;;40.94;33.86;100571.03;224872;1230;58398;-75
2023/08/13 10:39:32;;;;;;;5.70;3.90;;;;;;;41.63;32.52;100572.85;224537;1230;58153;-75
2023/08/13 10:44:32;;;;;;;4.10;3.60;;;;;;;41.98;31.44;100572.58;224865;1231;58188;-75
2023/08/13 10:49:25;;;;;;;4.90;3.80;;;;;;;41.96;30.42;100572.54;224875;1231;63792;-75
2023/08/13 10:54:20;;;;;;;4.90;3.90;;;;;;;41.93;30.27;100569.21;224827;1231;64044;-75
2023/08/13 10:59:12;;;;;;;5.00;4.50;;;;;;;41.90;30.07;100568.95;224909;1230;58431;-75
2023/08/13 11:04:04;;;;;;;4.70;4.20;;;;;;;41.73;29.78;100567.23;224893;1230;58138;-75
2023/08/13 11:08:55;;;;;;;5.60;4.20;;;;;;;41.51;29.72;100566.84;224927;1230;58144;-75
2023/08/13 11:13:49;;;;;;;4.10;3.70;;;;;;;41.03;29.86;100567.61;224944;1230;58127;-75
2023/08/13 11:18:40;;;;;;;3.90;3.50;;;;;;;40.84;30.22;100558.41;224901;1230;58218;-75
2023/08/13 11:23:32;;;;;;;3.40;3.20;;;;;;;40.59;30.04;100559.54;224868;1231;58142;-75
2023/08/13 11:28:26;;;;;;;4.40;4.00;;;;;;;40.13;30.28;100557.74;224959;1230;58974;-75
2023/08/13 11:33:17;;;;;;;9.10;3.70;;;;;;;39.76;31.09;100554.36;224850;1230;63881;-75
2023/08/13 11:38:09;;;;;;;3.30;3.10;;;;;;;39.38;30.68;100554.30;224890;1230;58065;-75
2023/08/13 11:43:01;;;;;;;3.80;3.20;;;;;;;38.38;31.70;100560.35;224603;1231;58449;-75
2023/08/13 11:48:08;;;;;;;3.40;3.20;;;;;;;37.52;32.84;100555.38;224535;1231;63925;-75
2023/08/13 11:53:08;;;;;;;3.80;3.00;;;;;;;36.86;33.73;100552.06;224869;1230;58747;-75
2023/08/13 11:58:00;;;;;;;4.50;3.40;;;;;;;36.37;34.30;100553.23;224867;1231;66740;-75
2023/08/13 12:02:56;;;;;;;3.80;3.40;;;;;;;35.99;34.23;100552.52;224852;1231;58397;-75
2023/08/13 12:07:47;;;;;;;4.70;3.60;;;;;;;35.53;34.92;100554.86;224866;1231;72400;-75
2023/08/13 12:12:38;;;;;;;3.60;3.30;;;;;;;35.31;36.00;100557.77;224854;1231;58327;-75
2023/08/13 12:17:30;;;;;;;3.60;3.40;;;;;;;35.12;35.71;100562.88;224930;1230;58202;-75
2023/08/13 12:22:21;;;;;;;3.20;3.00;;;;;;;34.89;36.05;100559.64;224570;1230;71210;-75
2023/08/13 12:27:13;;;;;;;3.20;2.90;;;;;;;34.85;36.15;100553.84;224859;1230;58424;-75
2023/08/13 12:32:05;;;;;;;3.20;2.70;;;;;;;34.34;36.13;100558.39;224862;1230;58132;-75
2023/08/13 12:36:56;;;;;;;7.90;3.30;;;;;;;33.34;37.00;100561.83;224889;1230;58917;-74
2023/08/13 12:41:48;;;;;;;3.00;2.80;;;;;;;32.96;37.39;100565.08;224564;1231;58511;-75
2023/08/13 12:46:39;;;;;;;4.00;2.60;;;;;;;32.97;37.54;100570.05;224894;1230;58125;-75
2023/08/13 12:51:31;;;;;;;3.60;3.30;;;;;;;33.34;38.16;100572.46;224852;1230;65607;-74
2023/08/13 12:56:22;;;;;;;2.90;2.70;;;;;;;33.55;38.10;100567.03;224829;1231;58077;-75
2023/08/13 13:01:14;;;;;;;4.60;3.10;;;;;;;33.56;37.53;100569.64;224754;1230;167099;-75
2023/08/13 13:06:05;;;;;;;3.30;2.90;;;;;;;33.38;37.81;100559.91;224824;1231;58319;-75
2023/08/13 13:10:57;;;;;;;3.20;2.90;;;;;;;33.39;38.08;100557.91;224898;1231;58506;-75
2023/08/13 13:15:48;;;;;;;2.70;2.50;;;;;;;33.99;38.21;100552.91;224884;1231;58562;-75
2023/08/13 13:20:40;;;;;;;2.50;2.30;;;;;;;33.98;37.44;100558.58;224899;1230;72224;-75
2023/08/13 13:25:31;;;;;;;3.00;2.70;;;;;;;34.00;37.33;100561.10;224780;1230;58247;-75
2023/08/13 13:30:23;;;;;;;2.90;2.50;;;;;;;33.92;37.49;100553.74;224916;1230;58216;-74
2023/08/13 13:35:14;;;;;;;4.70;2.70;;;;;;;33.97;37.47;100555.77;224832;1230;72454;-74
2023/08/13 13:40:06;;;;;;;2.60;2.40;;;;;;;34.08;37.27;100554.65;224869;1230;58209;-75
2023/08/13 13:44:58;;;;;;;3.50;3.00;;;;;;;34.10;37.44;100561.02;224892;1230;58316;-75
2023/08/13 13:49:49;;;;;;;3.70;2.90;;;;;;;33.86;37.46;100559.41;224818;1230;58886;-74
2023/08/13 13:54:41;;;;;;;3.10;2.90;;;;;;;33.03;38.03;100558.95;224790;1230;58100;-75
2023/08/13 13:59:33;;;;;;;3.20;2.90;;;;;;;32.10;38.87;100559.13;224842;1230;58277;-75
2023/08/13 14:04:26;;;;;;;4.70;3.50;;;;;;;31.48;39.64;100559.05;224848;1231;67348;-74
2023/08/13 14:09:17;;;;;;;4.90;3.40;;;;;;;31.58;40.57;100563.23;224820;1230;58289;-74
2023/08/13 14:14:09;;;;;;;5.00;3.50;;;;;;;31.36;40.77;100564.39;224798;1231;58488;-75
2023/08/13 14:19:00;;;;;;;5.70;4.40;;;;;;;31.40;41.54;100563.81;224839;1230;58205;-74
2023/08/13 14:23:51;;;;;;;3.80;3.50;;;;;;;31.47;41.63;100562.00;224802;1230;74318;-75
2023/08/13 14:28:43;;;;;;;4.10;3.80;;;;;;;31.51;41.48;100563.16;224779;1230;59248;-74
2023/08/13 14:33:34;;;;;;;4.20;3.90;;;;;;;31.26;41.65;100571.39;224793;1230;59393;-75
2023/08/13 14:38:26;;;;;;;4.80;3.70;;;;;;;30.83;42.02;100569.08;224492;1230;72782;-74
2023/08/13 14:43:17;;;;;;;3.60;3.30;;;;;;;30.49;42.41;100566.41;224846;1232;58959;-75
2023/08/13 14:48:09;;;;;;;5.30;3.30;;;;;;;30.23;42.87;100568.87;224764;1231;58896;-74
2023/08/13 14:53:00;;;;;;;4.10;3.40;;;;;;;30.02;43.23;100573.67;224794;1230;60594;-75
2023/08/13 14:57:51;;;;;;;6.00;4.00;;;;;;;29.75;43.78;100594.92;224551;1230;58956;-75
2023/08/13 15:02:44;;;;;;;4.30;3.90;;;;;;;29.15;47.09;100607.45;224595;1231;58987;-75
2023/08/13 15:07:36;;;;;;;3.80;3.50;;;;;;;28.50;49.49;100589.63;224664;1231;65621;-74
2023/08/13 15:12:27;;;;;;;4.60;4.30;;;;;;;28.09;52.09;100583.88;224730;1230;58904;-74
2023/08/13 15:17:32;;;;;;;4.40;4.00;;;;;;;27.69;53.79;100587.85;224742;1230;73702;-74
2023/08/13 15:22:24;;;;;;;6.00;4.30;;;;;;;27.35;55.47;100597.75;224732;1231;59061;-74
2023/08/13 15:27:15;;;;;;;3.90;3.60;;;;;;;27.07;56.83;100595.38;224808;1231;59081;-74
2023/08/13 15:32:07;;;;;;;5.10;4.70;;;;;;;26.96;58.17;100590.63;224707;1231;73242;-74
2023/08/13 15:36:58;;;;;;;4.80;4.20;;;;;;;27.01;58.95;100584.83;224609;1231;58980;-74
2023/08/13 15:41:50;;;;;;;4.20;3.90;;;;;;;27.32;59.00;100581.91;224537;1234;59096;-75
2023/08/13 15:46:41;;;;;;;5.20;4.80;;;;;;;27.55;59.65;100582.45;224696;1231;60383;-75
2023/08/13 15:51:33;;;;;;;4.40;4.00;;;;;;;28.12;59.69;100579.20;224619;1230;59123;-75
2023/08/13 15:56:24;;;;;;;4.10;3.70;;;;;;;28.56;59.09;100570.59;224744;1231;59123;-75
2023/08/13 16:01:16;;;;;;;4.90;4.40;;;;;;;28.77;59.54;100571.81;224750;1230;65801;-75
2023/08/13 16:06:07;;;;;;;4.80;4.50;;;;;;;28.55;59.72;100572.91;224615;1230;59005;-74
2023/08/13 16:11:00;;;;;;;5.40;4.40;;;;;;;27.98;60.53;100576.97;224808;1231;58931;-75
2023/08/13 16:15:51;;;;;;;5.90;4.60;;;;;;;27.58;61.51;100582.11;224674;1231;58934;-75
2023/08/13 16:20:43;;;;;;;4.80;4.40;;;;;;;27.50;62.34;100586.63;224698;1230;59221;-75
2023/08/13 16:25:35;;;;;;;5.80;5.30;;;;;;;27.60;62.45;100585.36;224637;1231;58944;-74
2023/08/13 16:30:26;;;;;;;5.20;4.70;;;;;;;27.59;62.94;100583.11;224560;1230;59284;-75
2023/08/13 16:35:18;;;;;;;4.70;4.30;;;;;;;27.61;63.09;100586.21;224653;1231;72530;-75
2023/08/13 16:40:10;;;;;;;5.10;4.70;;;;;;;27.61;63.09;100588.85;224483;1231;58974;-74
2023/08/13 16:45:01;;;;;;;4.90;4.60;;;;;;;27.53;63.34;100590.77;224720;1231;58977;-75
2023/08/13 16:49:54;;;;;;;5.00;4.60;;;;;;;27.32;63.69;100593.13;224682;1231;59979;-75
2023/08/13 16:55:05;;;;;;;5.20;4.90;;;;;;;27.04;63.89;100591.97;224647;1231;65758;-74
2023/08/13 16:59:57;;;;;;;5.30;4.80;;;;;;;26.87;64.17;100598.55;224443;1231;59182;-75
2023/08/13 17:04:48;;;;;;;5.30;4.80;;;;;;;26.64;64.49;100596.58;224658;1231;59046;-75
2023/08/13 17:09:40;;;;;;;4.20;3.90;;;;;;;26.48;64.71;100601.82;224652;1231;58942;-75
2023/08/13 17:14:31;;;;;;;4.60;4.10;;;;;;;26.30;63.51;100605.02;224625;1231;74370;-74
2023/08/13 17:19:25;;;;;;;5.40;3.90;;;;;;;26.22;63.89;100611.07;224637;1231;73415;-75
2023/08/13 17:24:17;;;;;;;5.40;4.80;;;;;;;26.12;64.00;100613.02;224688;1231;58932;-75
2023/08/13 17:29:08;;;;;;;5.80;4.40;;;;;;;25.95;64.42;100620.77;224697;1231;58948;-75
2023/08/13 17:34:00;;;;;;;5.20;4.80;;;;;;;25.74;64.70;100622.13;224673;1230;59018;-74
2023/08/13 17:38:51;;;;;;;4.90;4.40;;;;;;;25.50;65.15;100626.43;224491;1231;59265;-74
2023/08/13 17:43:42;;;;;;;4.20;3.90;;;;;;;25.27;65.23;100634.59;224695;1230;59076;-74
2023/08/13 17:48:34;;;;;;;5.30;4.90;;;;;;;25.09;65.53;100636.95;224604;1231;66091;-74
2023/08/13 17:53:25;;;;;;;4.90;4.50;;;;;;;24.92;65.82;100640.36;224577;1231;59068;-74
2023/08/13 17:58:17;;;;;;;5.30;4.90;;;;;;;24.80;66.26;100646.55;224489;1231;58940;-74
2023/08/13 18:03:08;;;;;;;4.70;4.30;;;;;;;24.71;66.69;100646.05;224572;1231;58963;-74
2023/08/13 18:08:00;;;;;;;5.30;4.70;;;;;;;24.60;66.99;100654.14;224597;1231;58937;-74
2023/08/13 18:13:06;;;;;;;5.70;4.80;;;;;;;24.52;67.33;100657.14;224559;1231;71129;-75
2023/08/13 18:17:57;;;;;;;5.20;4.80;;;;;;;24.39;67.09;100660.32;224573;1230;59245;-75
2023/08/13 18:22:51;;;;;;;5.10;4.70;;;;;;;24.25;67.01;100670.64;224694;1231;59132;-75
2023/08/13 18:27:44;;;;;;;4.90;4.50;;;;;;;24.18;67.68;100672.16;224588;1231;58973;-74
2023/08/13 18:32:36;;;;;;;7.40;5.00;;;;;;;24.13;68.09;100683.86;224599;1231;58974;-75
2023/08/13 18:37:27;;;;;;;5.10;4.70;;;;;;;24.08;68.51;100689.39;224539;1230;59100;-75
2023/08/13 18:42:19;;;;;;;5.50;5.10;;;;;;;24.01;68.65;100692.66;224571;1230;59239;-75
2023/08/13 18:47:11;;;;;;;4.90;4.50;;;;;;;23.92;68.70;100697.78;224617;1231;59874;-75
2023/08/13 18:52:02;;;;;;;6.50;5.30;;;;;;;23.86;68.96;100704.93;224553;1231;74251;-75
2023/08/13 18:56:54;;;;;;;5.30;4.90;;;;;;;23.75;69.25;100705.48;224559;1231;58900;-75
2023/08/13 19:01:45;;;;;;;5.50;5.00;;;;;;;23.61;69.14;100706.55;224612;1231;59087;-75
2023/08/13 19:06:36;;;;;;;5.20;4.70;;;;;;;23.43;69.08;100715.35;224455;1231;70258;-75
2023/08/13 19:11:28;;;;;;;5.90;5.40;;;;;;;23.24;69.23;100720.79;224561;1231;58938;-75
2023/08/13 19:16:19;;;;;;;5.40;5.00;;;;;;;23.13;69.61;100730.92;224584;1231;58998;-75
2023/08/13 19:21:11;;;;;;;5.60;5.10;;;;;;;23.01;69.77;100730.07;224551;1230;60206;-75
2023/08/13 19:26:03;;;;;;;4.70;4.40;;;;;;;22.87;69.67;100739.01;224554;1230;58923;-74
2023/08/13 19:30:54;;;;;;;5.00;4.70;;;;;;;22.73;69.43;100743.38;224467;1230;58937;-75
2023/08/13 19:35:46;;;;;;;6.20;5.70;;;;;;;22.60;69.51;100739.74;224570;1231;67037;-75
2023/08/13 19:40:38;;;;;;;6.40;5.90;;;;;;;22.46;69.55;100738.75;224554;1231;59380;-75
2023/08/13 19:45:30;;;;;;;5.40;4.90;;;;;;;22.32;69.71;100744.33;224583;1232;59063;-75
2023/08/13 19:50:21;;;;;;;5.30;4.90;;;;;;;22.22;69.81;100745.67;224590;1231;58975;-75
2023/08/13 19:55:13;;;;;;;6.30;5.80;;;;;;;22.13;69.82;100745.60;224569;1231;74028;-75
2023/08/13 20:00:05;;;;;;;6.20;5.60;;;;;;;22.03;69.95;100742.73;224522;1231;59190;-75
2023/08/13 20:04:57;;;;;;;9.00;6.00;;;;;;;21.92;69.83;100747.45;224466;1234;59078;-75
2023/08/13 20:09:49;;;;;;;5.80;5.30;;;;;;;21.82;70.08;100745.81;224583;1231;59022;-75
2023/08/13 20:14:40;;;;;;;6.40;5.80;;;;;;;21.74;69.81;100748.52;224520;1231;60156;-75
2023/08/13 20:19:32;;;;;;;6.20;5.70;;;;;;;21.67;70.27;100751.89;224570;1231;58956;-75
2023/08/13 20:24:23;;;;;;;6.40;5.80;;;;;;;21.61;70.51;100750.30;224463;1231;59324;-75
2023/08/13 20:29:15;;;;;;;6.90;6.30;;;;;;;21.52;70.41;100752.30;224588;1231;67951;-75
2023/08/13 20:34:06;;;;;;;6.20;5.70;;;;;;;21.44;70.58;100751.80;224435;1230;59073;-74
2023/08/13 20:38:58;;;;;;;7.60;6.90;;;;;;;21.37;70.78;100757.63;224598;1231;59187;-75
2023/08/13 20:43:50;;;;;;;7.00;6.40;;;;;;;21.25;70.49;100760.06;224547;1232;58909;-74
2023/08/13 20:48:41;;;;;;;7.60;7.00;;;;;;;21.13;70.64;100757.20;224427;1234;59378;-74
2023/08/13 20:53:33;;;;;;;7.10;6.30;;;;;;;21.03;70.77;100760.98;224471;1231;59553;-74
2023/08/13 20:58:25;;;;;;;7.40;6.60;;;;;;;20.94;70.95;100774.25;224585;1230;75153;-74
2023/08/13 21:03:16;;;;;;;6.70;6.10;;;;;;;20.87;71.26;100775.98;224565;1231;58991;-74
2023/08/13 21:08:08;;;;;;;7.50;6.90;;;;;;;20.80;71.26;100773.36;224644;1231;58946;-74
2023/08/13 21:13:00;;;;;;;8.00;7.20;;;;;;;20.71;71.33;100777.11;224574;1231;71282;-74
2023/08/13 21:17:51;;;;;;;7.80;6.90;;;;;;;20.65;71.47;100782.36;224605;1231;58879;-74
2023/08/13 21:22:43;;;;;;;8.00;7.30;;;;;;;20.59;71.42;100774.38;224654;1231;58976;-74
2023/08/13 21:27:34;;;;;;;8.30;7.60;;;;;;;20.51;71.54;100767.69;224613;1230;59970;-74
2023/08/13 21:32:26;;;;;;;8.00;7.20;;;;;;;20.44;71.68;100776.10;224629;1231;58895;-74
2023/08/13 21:37:17;;;;;;;9.20;7.00;;;;;;;20.38;71.68;100774.14;224474;1231;58935;-74
2023/08/13 21:42:09;;;;;;;8.50;6.70;;;;;;;20.32;71.96;100770.77;224636;1231;65560;-74
2023/08/13 21:47:00;;;;;;;6.90;6.30;;;;;;;20.28;72.27;100774.73;224650;1231;58990;-74
2023/08/13 21:51:52;;;;;;;6.90;6.10;;;;;;;20.24;72.33;100781.69;224697;1231;59195;-74
2023/08/13 21:56:43;;;;;;;7.80;5.90;;;;;;;20.16;72.22;100786.23;224649;1231;59318;-74
2023/08/13 22:01:35;;;;;;;6.50;5.90;;;;;;;20.09;72.32;100789.73;224657;1231;59247;-74
2023/08/13 22:06:26;;;;;;;6.40;5.90;;;;;;;20.03;72.72;100785.98;224541;1231;58849;-74
2023/08/13 22:11:18;;;;;;;6.40;5.80;;;;;;;19.98;72.77;100784.51;224654;1232;73249;-74
2023/08/13 22:16:09;;;;;;;6.10;5.60;;;;;;;19.91;72.60;100785.90;224491;1232;59012;-74
2023/08/13 22:21:01;;;;;;;6.20;5.60;;;;;;;19.84;72.50;100775.30;224705;1231;59330;-75
2023/08/13 22:25:52;;;;;;;6.30;5.70;;;;;;;19.79;72.62;100772.23;224672;1231;72433;-74